createdAt,value
2022-09-07T00:00:42.444Z,4.85
2022-09-07T00:03:29.142Z,4.82
2022-09-07T00:09:04.869Z,4.68
2022-09-07T00:11:51.106Z,5.18
2022-09-07T00:14:37.530Z,4.72
2022-09-07T00:17:23.697Z,5.00
2022-09-07T00:20:12.113Z,4.85
2022-09-07T00:22:58.678Z,4.70
2022-09-07T00:25:45.151Z,5.03
2022-09-07T00:28:31.992Z,5.28
2022-09-07T00:31:21.137Z,4.50
2022-09-07T00:34:07.431Z,4.32
2022-09-07T00:36:53.836Z,4.57
2022-09-07T00:39:40.343Z,4.57
2022-09-07T00:42:26.859Z,4.82
2022-09-07T00:45:20.806Z,4.90
2022-09-07T00:48:17.669Z,4.60
2022-09-07T00:54:02.922Z,5.28
2022-09-07T00:56:52.776Z,4.90
2022-09-07T00:59:47.830Z,4.60
2022-09-07T01:02:34.471Z,4.90
2022-09-07T01:05:56.284Z,5.03
2022-09-07T01:08:43.668Z,4.80
2022-09-07T01:11:32.663Z,5.07
2022-09-07T01:14:31.734Z,5.10
2022-09-07T01:17:45.535Z,5.07
2022-09-07T01:20:55.290Z,5.32
2022-09-07T01:24:00.361Z,5.35
2022-09-07T01:27:24.926Z,5.25
2022-09-07T01:30:23.188Z,4.78
2022-09-07T01:33:25.383Z,5.03
2022-09-07T01:36:17.691Z,5.65
2022-09-07T01:39:05.791Z,5.13
2022-09-07T01:42:02.066Z,5.25
2022-09-07T01:44:57.760Z,4.83
2022-09-07T01:47:48.452Z,5.28
2022-09-07T01:51:02.617Z,5.35
2022-09-07T01:54:07.869Z,4.80
2022-09-07T01:57:00.763Z,4.95
2022-09-07T01:59:55.260Z,4.35
2022-09-07T02:02:55.631Z,4.70
2022-09-07T02:06:00.182Z,4.65
2022-09-07T02:08:50.107Z,4.80
2022-09-07T02:11:39.889Z,4.32
2022-09-07T02:14:33.124Z,4.25
2022-09-07T02:17:26.916Z,4.13
2022-09-07T02:20:19.513Z,3.80
2022-09-07T02:23:19.929Z,3.65
2022-09-07T02:26:18.131Z,4.00
2022-09-07T02:29:04.665Z,3.75
2022-09-07T02:31:51.669Z,3.83
2022-09-07T02:34:37.999Z,3.70
2022-09-07T02:37:28.810Z,3.38
2022-09-07T02:40:14.972Z,3.60
2022-09-07T02:43:04.918Z,3.13
2022-09-07T02:46:09.823Z,3.47
2022-09-07T02:49:14.053Z,3.05
2022-09-07T02:52:00.303Z,4.00
2022-09-07T02:55:09.046Z,3.20
2022-09-07T02:58:06.998Z,3.38
2022-09-07T03:01:09.596Z,2.90
2022-09-07T03:04:02.040Z,2.70
2022-09-07T03:06:55.180Z,3.00
2022-09-07T03:09:46.627Z,2.90
2022-09-07T03:13:02.529Z,2.63
2022-09-07T03:15:53.585Z,2.67
2022-09-07T03:18:43.192Z,3.13
2022-09-07T03:21:29.619Z,2.70
2022-09-07T03:24:15.957Z,2.67
2022-09-07T03:27:02.433Z,2.55
2022-09-07T03:32:36.576Z,3.30
2022-09-07T03:35:23.020Z,2.70
2022-09-07T03:38:09.232Z,3.15
2022-09-07T03:41:02.305Z,2.60
2022-09-07T03:43:48.818Z,2.85
2022-09-07T03:46:35.818Z,2.63
2022-09-07T03:49:22.160Z,2.88
2022-09-07T03:52:08.515Z,2.60
2022-09-07T03:54:54.781Z,3.00
2022-09-07T03:57:40.768Z,2.88
2022-09-07T04:00:26.914Z,2.90
2022-09-07T04:03:12.860Z,3.30
2022-09-07T04:06:00.518Z,2.83
2022-09-07T04:08:47.249Z,2.90
2022-09-07T04:11:33.886Z,2.72
2022-09-07T04:14:20.140Z,2.60
2022-09-07T04:17:06.563Z,2.70
2022-09-07T04:19:53.009Z,2.90
2022-09-07T04:22:39.542Z,3.08
2022-09-07T04:25:25.894Z,2.55
2022-09-07T04:28:12.154Z,3.15
2022-09-07T04:31:04.433Z,3.10
2022-09-07T04:33:51.891Z,2.95
2022-09-07T04:36:38.273Z,2.53
2022-09-07T04:39:24.685Z,3.22
2022-09-07T04:42:11.125Z,2.95
2022-09-07T04:44:57.463Z,3.10
2022-09-07T04:47:50.217Z,2.70
2022-09-07T04:50:36.411Z,2.80
2022-09-07T04:53:22.830Z,2.85
2022-09-07T04:56:11.846Z,2.88
2022-09-07T04:59:01.868Z,3.40
2022-09-07T05:01:48.429Z,2.90
2022-09-07T05:04:37.642Z,3.28
2022-09-07T05:07:23.756Z,3.40
2022-09-07T05:10:09.966Z,3.20
2022-09-07T05:12:56.124Z,2.80
2022-09-07T05:15:42.229Z,3.17
2022-09-07T05:18:28.342Z,3.35
2022-09-07T05:21:17.376Z,3.25
2022-09-07T05:24:04.829Z,3.00
2022-09-07T05:26:51.174Z,3.15
2022-09-07T05:32:45.731Z,2.95
2022-09-07T05:35:32.128Z,2.97
2022-09-07T05:38:18.422Z,3.17
2022-09-07T05:41:19.339Z,3.10
2022-09-07T05:47:13.193Z,3.40
2022-09-07T05:52:47.901Z,2.70
2022-09-07T05:55:34.160Z,3.03
2022-09-07T05:58:20.109Z,2.77
2022-09-07T06:01:11.642Z,3.03
2022-09-07T06:03:58.249Z,3.20
2022-09-07T06:06:59.152Z,3.38
2022-09-07T06:12:58.250Z,3.63
2022-09-07T06:15:44.137Z,3.50
2022-09-07T06:18:31.513Z,4.17
2022-09-07T06:21:20.305Z,3.13
2022-09-07T06:24:06.577Z,3.50
2022-09-07T06:26:53.005Z,4.28
2022-09-07T06:29:39.267Z,3.88
2022-09-07T06:35:31.366Z,3.72
2022-09-07T06:38:17.390Z,4.20
2022-09-07T06:44:12.593Z,4.20
2022-09-07T06:47:02.529Z,3.67
2022-09-07T06:49:49.034Z,4.55
2022-09-07T06:55:44.875Z,4.05
2022-09-07T06:58:31.280Z,3.92
2022-09-07T07:01:22.166Z,4.25
2022-09-07T07:04:08.408Z,4.45
2022-09-07T07:06:54.886Z,5.93
2022-09-07T07:09:41.658Z,4.43
2022-09-07T07:15:15.456Z,4.47
2022-09-07T07:18:19.289Z,3.45
2022-09-07T07:21:13.342Z,3.75
2022-09-07T07:24:02.936Z,3.25
2022-09-07T07:26:51.273Z,3.63
2022-09-07T07:29:37.648Z,3.22
2022-09-07T07:32:23.953Z,3.30
2022-09-07T07:35:11.077Z,3.20
2022-09-07T07:44:09.724Z,3.00
2022-09-07T07:46:55.796Z,3.00
2022-09-07T07:49:42.255Z,2.83
2022-09-07T07:53:41.352Z,2.85
2022-09-07T07:55:43.995Z,2.42
2022-09-07T07:58:31.891Z,3.13
2022-09-07T08:01:18.580Z,2.78
2022-09-07T08:06:51.197Z,2.15
2022-09-07T08:09:39.381Z,2.80
2022-09-07T08:12:29.559Z,3.13
2022-09-07T08:15:15.906Z,2.40
2022-09-07T08:18:02.421Z,2.22
2022-09-07T08:20:48.508Z,2.83
2022-09-07T08:23:35.137Z,2.33
2022-09-07T08:26:21.414Z,2.30
2022-09-07T08:29:08.114Z,2.45
2022-09-07T08:31:54.420Z,2.38
2022-09-07T08:34:40.637Z,2.50
2022-09-07T08:37:26.654Z,2.60
2022-09-07T08:40:17.319Z,2.20
2022-09-07T08:43:19.778Z,2.40
2022-09-07T08:46:38.381Z,2.22
2022-09-07T08:49:36.477Z,2.00
2022-09-07T08:52:26.358Z,2.17
2022-09-07T08:55:21.704Z,1.90
2022-09-07T08:58:32.618Z,2.20
2022-09-07T09:01:37.032Z,2.30
2022-09-07T09:04:29.616Z,2.30
2022-09-07T09:07:36.012Z,1.90
2022-09-07T09:10:54.153Z,2.10
2022-09-07T09:14:06.010Z,2.03
2022-09-07T09:17:03.283Z,2.40
2022-09-07T09:19:52.731Z,1.92
2022-09-07T09:22:39.398Z,2.38
2022-09-07T09:25:33.246Z,2.17
2022-09-07T09:28:19.667Z,1.98
2022-09-07T09:31:06.290Z,2.00
2022-09-07T09:34:17.726Z,2.00
2022-09-07T09:37:03.755Z,1.83
2022-09-07T09:40:00.646Z,1.75
2022-09-07T09:43:17.433Z,1.60
2022-09-07T09:46:19.530Z,1.65
2022-09-07T09:49:12.802Z,1.38
2022-09-07T09:55:32.690Z,1.40
2022-09-07T10:04:45.365Z,1.65
2022-09-07T10:07:32.731Z,1.50
2022-09-07T10:10:18.913Z,1.33
2022-09-07T10:13:08.745Z,1.25
2022-09-07T10:15:57.181Z,1.50
2022-09-07T10:18:58.353Z,1.15
2022-09-07T10:21:45.326Z,1.55
2022-09-07T10:24:39.726Z,1.30
2022-09-07T10:27:37.673Z,1.52
2022-09-07T10:30:24.088Z,1.13
2022-09-07T10:33:27.486Z,1.30
2022-09-07T10:36:32.220Z,1.20
2022-09-07T10:39:23.054Z,1.70
2022-09-07T10:42:09.355Z,1.50
2022-09-07T10:45:20.218Z,1.27
2022-09-07T10:48:32.773Z,1.70
2022-09-07T10:51:53.045Z,1.40
2022-09-07T10:54:54.716Z,1.45
2022-09-07T10:58:06.781Z,1.30
2022-09-07T11:01:03.975Z,1.20
2022-09-07T11:04:00.620Z,1.50
2022-09-07T11:06:51.845Z,1.60
2022-09-07T11:10:04.134Z,1.40
2022-09-07T11:12:52.234Z,1.70
2022-09-07T11:15:50.677Z,1.58
2022-09-07T11:18:44.843Z,1.40
2022-09-07T11:21:56.551Z,1.60
2022-09-07T11:25:33.285Z,1.83
2022-09-07T11:32:11.290Z,1.60
2022-09-07T11:35:22.362Z,1.70
2022-09-07T11:38:20.104Z,1.42
2022-09-07T11:41:19.834Z,1.80
2022-09-07T11:44:15.093Z,1.42
2022-09-07T11:47:13.357Z,1.95
2022-09-07T11:49:59.815Z,1.50
2022-09-07T11:53:01.001Z,1.77
2022-09-07T11:55:51.499Z,1.65
2022-09-07T11:58:56.894Z,2.22
2022-09-07T12:01:58.395Z,2.05
2022-09-07T12:05:00.927Z,1.75
2022-09-07T12:08:10.103Z,1.50
2022-09-07T12:11:22.627Z,1.83
2022-09-07T12:14:44.117Z,1.77
2022-09-07T12:17:42.784Z,1.33
2022-09-07T12:20:46.358Z,1.70
2022-09-07T12:23:33.794Z,1.50
2022-09-07T12:26:35.607Z,1.50
2022-09-07T12:29:24.673Z,1.40
2022-09-07T12:35:41.886Z,1.83
2022-09-07T12:38:31.435Z,1.70
2022-09-07T12:41:23.922Z,1.80
2022-09-07T12:44:17.932Z,1.50
2022-09-07T12:47:29.546Z,1.70
2022-09-07T12:50:28.477Z,1.42
2022-09-07T12:53:14.542Z,1.70
2022-09-07T12:56:23.302Z,1.63
2022-09-07T12:59:21.206Z,1.50
2022-09-07T13:02:07.865Z,1.67
2022-09-07T13:05:02.933Z,2.08
2022-09-07T13:08:09.113Z,1.80
2022-09-07T13:10:56.162Z,1.70
2022-09-07T13:14:04.765Z,1.92
2022-09-07T13:17:26.590Z,1.70
2022-09-07T13:20:23.665Z,1.25
2022-09-07T13:23:21.382Z,1.83
2022-09-07T13:26:10.715Z,1.90
2022-09-07T13:29:02.225Z,1.90
2022-09-07T13:32:10.889Z,1.80
2022-09-07T13:35:05.926Z,1.48
2022-09-07T13:38:01.084Z,1.73
2022-09-07T13:40:50.141Z,1.58
2022-09-07T13:43:36.499Z,2.08
2022-09-07T13:46:57.682Z,1.65
2022-09-07T13:50:15.446Z,1.70
2022-09-07T13:53:19.483Z,1.50
2022-09-07T13:56:26.909Z,1.50
2022-09-07T13:59:23.889Z,1.73
2022-09-07T14:02:33.376Z,1.67
2022-09-07T14:05:22.349Z,1.58
2022-09-07T14:08:27.841Z,1.55
2022-09-07T14:11:43.141Z,1.50
2022-09-07T14:14:33.325Z,1.77
2022-09-07T14:17:19.829Z,2.00
2022-09-07T14:20:06.981Z,1.52
2022-09-07T14:22:53.786Z,1.60
2022-09-07T14:28:49.582Z,1.55
2022-09-07T14:31:36.508Z,1.73
2022-09-07T14:34:26.895Z,1.60
2022-09-07T14:37:18.142Z,1.52
2022-09-07T14:40:05.255Z,1.40
2022-09-07T14:42:54.068Z,1.50
2022-09-07T14:45:39.928Z,1.40
2022-09-07T14:48:32.218Z,1.70
2022-09-07T14:51:35.213Z,2.00
2022-09-07T14:54:28.408Z,1.55
2022-09-07T14:57:18.157Z,1.42
2022-09-07T15:04:21.849Z,1.30
2022-09-07T15:07:41.149Z,1.50
2022-09-07T15:13:34.136Z,1.40
2022-09-07T15:16:26.147Z,1.92
2022-09-07T15:19:15.359Z,1.63
2022-09-07T15:22:05.270Z,1.60
2022-09-07T15:24:51.360Z,1.58
2022-09-07T15:27:38.525Z,1.15
2022-09-07T15:30:26.172Z,1.38
2022-09-07T15:33:12.524Z,1.30
2022-09-07T15:35:58.972Z,1.83
2022-09-07T15:41:48.828Z,1.67
2022-09-07T15:50:27.521Z,1.42
2022-09-07T15:56:21.230Z,1.20
2022-09-07T15:59:07.773Z,1.50
2022-09-07T16:04:41.129Z,1.25
2022-09-07T16:08:24.805Z,1.38
2022-09-07T16:10:33.484Z,1.75
2022-09-07T16:16:06.771Z,2.03
2022-09-07T16:18:53.149Z,1.90
2022-09-07T16:21:41.079Z,1.90
2022-09-07T16:24:28.362Z,1.95
2022-09-07T16:27:15.625Z,2.10
2022-09-07T16:30:01.842Z,1.80
2022-09-07T16:32:48.137Z,1.83
2022-09-07T16:35:34.355Z,1.80
2022-09-07T16:41:31.670Z,2.10
2022-09-07T16:44:18.056Z,2.05
2022-09-07T16:49:51.627Z,2.55
2022-09-07T16:52:38.382Z,2.40
2022-09-07T16:55:24.998Z,2.20
2022-09-07T17:01:19.316Z,2.47
2022-09-07T17:04:10.691Z,2.15
2022-09-07T17:06:57.715Z,2.55
2022-09-07T17:09:43.605Z,2.28
2022-09-07T17:12:29.542Z,2.30
2022-09-07T17:15:15.703Z,2.65
2022-09-07T17:18:02.151Z,2.63
2022-09-07T17:20:56.655Z,2.67
2022-09-07T17:23:53.962Z,2.83
2022-09-07T17:26:42.212Z,2.47
2022-09-07T17:29:30.822Z,2.35
2022-09-07T17:32:25.369Z,2.55
2022-09-07T17:35:11.748Z,2.45
2022-09-07T17:37:57.988Z,2.35
2022-09-07T17:40:44.267Z,2.63
2022-09-07T17:43:46.048Z,2.38
2022-09-07T17:46:32.157Z,2.33
2022-09-07T17:49:18.427Z,2.75
2022-09-07T17:52:04.521Z,2.83
2022-09-07T17:54:50.662Z,2.50
2022-09-07T17:57:36.635Z,2.58
2022-09-07T18:00:22.662Z,2.33
2022-09-07T18:03:08.638Z,2.40
2022-09-07T18:05:55.301Z,2.70
2022-09-07T18:08:41.530Z,2.40
2022-09-07T18:14:33.725Z,2.75
2022-09-07T18:17:19.674Z,2.30
2022-09-07T18:20:06.298Z,2.58
2022-09-07T18:22:53.214Z,2.28
2022-09-07T18:25:39.434Z,2.28
2022-09-07T18:31:32.641Z,3.03
2022-09-07T18:34:19.170Z,2.90
2022-09-07T18:37:06.071Z,2.67
2022-09-07T18:39:52.404Z,2.88
2022-09-07T18:42:40.509Z,2.70
2022-09-07T18:45:27.560Z,2.40
2022-09-07T18:48:14.158Z,2.80
2022-09-07T18:51:01.104Z,2.40
2022-09-07T18:53:47.872Z,2.58
2022-09-07T18:56:33.777Z,2.50
2022-09-07T18:59:19.752Z,2.70
2022-09-07T19:02:08.165Z,2.67
2022-09-07T19:08:03.346Z,2.55
2022-09-07T19:10:49.504Z,2.40
2022-09-07T19:13:36.824Z,2.70
2022-09-07T19:16:23.846Z,3.22
2022-09-07T19:19:11.750Z,2.38
2022-09-07T19:21:58.304Z,2.80
2022-09-07T19:24:44.177Z,2.70
2022-09-07T19:27:32.834Z,2.80
2022-09-07T19:30:18.980Z,2.97
2022-09-07T19:33:07.967Z,2.72
2022-09-07T19:35:54.173Z,2.85
2022-09-07T19:38:40.846Z,3.08
2022-09-07T19:41:28.368Z,2.50
2022-09-07T19:44:14.607Z,3.00
2022-09-07T19:47:01.053Z,3.15
2022-09-07T19:52:33.542Z,3.42
2022-09-07T19:55:19.534Z,4.07
2022-09-07T19:58:05.467Z,4.03
2022-09-07T20:00:51.783Z,4.28
2022-09-07T20:03:39.496Z,3.80
2022-09-07T20:06:26.653Z,4.00
2022-09-07T20:09:15.786Z,3.88
2022-09-07T20:12:03.754Z,4.32
2022-09-07T20:14:50.592Z,4.40
2022-09-07T20:17:37.542Z,3.83
2022-09-07T20:20:23.665Z,3.88
2022-09-07T20:23:10.478Z,4.53
2022-09-07T20:25:59.234Z,4.25
2022-09-07T20:28:45.917Z,4.47
2022-09-07T20:31:32.193Z,4.40
2022-09-07T20:34:18.208Z,4.30
2022-09-07T20:37:05.257Z,4.45
2022-09-07T20:39:51.642Z,4.13
2022-09-07T20:42:39.106Z,3.83
2022-09-07T20:45:29.774Z,4.20
2022-09-07T20:48:18.054Z,3.92
2022-09-07T20:51:08.113Z,3.85
2022-09-07T20:53:55.886Z,4.28
2022-09-07T20:56:42.297Z,4.38
2022-09-07T20:59:28.435Z,3.73
2022-09-07T21:02:14.799Z,3.45
2022-09-07T21:05:01.237Z,3.70
2022-09-07T21:07:47.450Z,3.70
2022-09-07T21:10:33.789Z,3.58
2022-09-07T21:13:19.728Z,3.67
2022-09-07T21:16:08.323Z,3.83
2022-09-07T21:18:58.936Z,3.50
2022-09-07T21:21:45.020Z,3.75
2022-09-07T21:24:31.015Z,3.47
2022-09-07T21:27:17.038Z,3.40
2022-09-07T21:30:03.388Z,3.85
2022-09-07T21:32:52.794Z,3.28
2022-09-07T21:35:38.775Z,3.75
2022-09-07T21:38:24.733Z,3.95
2022-09-07T21:41:15.559Z,3.78
2022-09-07T21:44:02.925Z,3.30
2022-09-07T21:46:49.189Z,3.28
2022-09-07T21:49:35.505Z,3.20
2022-09-07T21:52:21.910Z,3.33
2022-09-07T21:55:08.632Z,3.42
2022-09-07T21:57:54.765Z,3.33
2022-09-07T22:00:40.825Z,3.30
2022-09-07T22:03:27.585Z,3.40
2022-09-07T22:06:14.768Z,3.58
2022-09-07T22:09:01.436Z,3.78
2022-09-07T22:11:47.629Z,3.30
2022-09-07T22:14:34.091Z,3.53
2022-09-07T22:17:20.634Z,2.70
2022-09-07T22:20:07.482Z,2.78
2022-09-07T22:25:39.725Z,3.42
2022-09-07T22:28:26.268Z,3.10
2022-09-07T22:31:22.691Z,3.20
2022-09-07T22:34:09.548Z,3.03
2022-09-07T22:36:55.615Z,2.95
2022-09-07T22:39:42.061Z,3.53
2022-09-07T22:42:28.639Z,3.83
2022-09-07T22:45:14.825Z,3.63
2022-09-07T22:48:01.949Z,3.60
2022-09-07T22:53:41.883Z,3.22
2022-09-07T22:56:31.292Z,3.50
2022-09-07T22:59:17.607Z,3.20
2022-09-07T23:02:04.130Z,3.53
2022-09-07T23:04:50.438Z,3.33
2022-09-07T23:07:36.290Z,3.13
2022-09-07T23:10:22.466Z,3.03
2022-09-07T23:13:16.679Z,2.80
2022-09-07T23:16:06.111Z,2.47
2022-09-07T23:18:52.698Z,2.58
2022-09-07T23:21:40.154Z,2.28
2022-09-07T23:24:26.495Z,3.13
2022-09-07T23:27:12.577Z,3.53
2022-09-07T23:29:58.804Z,2.13
2022-09-07T23:32:45.146Z,2.53
2022-09-07T23:35:31.085Z,2.50
2022-09-07T23:38:16.989Z,2.40
2022-09-07T23:41:03.222Z,2.08
2022-09-07T23:43:49.577Z,2.40
2022-09-07T23:46:35.702Z,2.40
2022-09-07T23:49:21.736Z,2.17
2022-09-07T23:52:07.757Z,2.13
2022-09-07T23:54:53.814Z,2.70
2022-09-07T23:57:40.357Z,1.98
